sensor_id;sensor_type;location;lat;lon;timestamp;pressure;altitude;pressure_sealevel;temperature;humidity
47330;BME280;33060;50.178;7.570;2023-01-09T00:02:01;95147.72;;;5.98;93.27
47330;BME280;33060;50.178;7.570;2023-01-09T00:04:28;95147.28;;;5.81;94.94
47330;BME280;33060;50.178;7.570;2023-01-09T00:06:54;95148.28;;;5.69;95.82
47330;BME280;33060;50.178;7.570;2023-01-09T00:09:22;95143.19;;;5.67;96.16
47330;BME280;33060;50.178;7.570;2023-01-09T00:11:50;95153.56;;;5.58;98.62
47330;BME280;33060;50.178;7.570;2023-01-09T00:14:17;95151.66;;;5.60;98.39
47330;BME280;33060;50.178;7.570;2023-01-09T00:16:44;95152.69;;;5.68;97.04
47330;BME280;33060;50.178;7.570;2023-01-09T00:19:11;95143.31;;;5.66;97.19
47330;BME280;33060;50.178;7.570;2023-01-09T00:21:38;95140.34;;;5.59;98.52
47330;BME280;33060;50.178;7.570;2023-01-09T00:24:05;95135.00;;;5.61;99.17
47330;BME280;33060;50.178;7.570;2023-01-09T00:26:32;95133.47;;;5.58;99.53
47330;BME280;33060;50.178;7.570;2023-01-09T00:29:00;95130.97;;;5.57;100.00
47330;BME280;33060;50.178;7.570;2023-01-09T00:31:27;95125.63;;;5.58;99.81
47330;BME280;33060;50.178;7.570;2023-01-09T00:36:22;95121.97;;;5.50;100.00
47330;BME280;33060;50.178;7.570;2023-01-09T00:38:49;95123.38;;;5.54;100.00
47330;BME280;33060;50.178;7.570;2023-01-09T00:41:19;95113.72;;;5.54;100.00
47330;BME280;33060;50.178;7.570;2023-01-09T00:43:49;95107.44;;;5.57;100.00
47330;BME280;33060;50.178;7.570;2023-01-09T00:46:18;95104.09;;;5.55;100.00
47330;BME280;33060;50.178;7.570;2023-01-09T00:48:47;95107.94;;;5.51;100.00
47330;BME280;33060;50.178;7.570;2023-01-09T00:51:15;95108.06;;;5.49;100.00
47330;BME280;33060;50.178;7.570;2023-01-09T00:53:43;95095.81;;;5.50;100.00
47330;BME280;33060;50.178;7.570;2023-01-09T00:56:15;95104.16;;;5.44;100.00
47330;BME280;33060;50.178;7.570;2023-01-09T00:58:44;95096.31;;;5.44;100.00
47330;BME280;33060;50.178;7.570;2023-01-09T01:01:11;95095.22;;;5.46;100.00
47330;BME280;33060;50.178;7.570;2023-01-09T01:03:38;95088.81;;;5.50;100.00
47330;BME280;33060;50.178;7.570;2023-01-09T01:06:05;95092.25;;;5.51;100.00
47330;BME280;33060;50.178;7.570;2023-01-09T01:08:50;95087.31;;;5.36;100.00
47330;BME280;33060;50.178;7.570;2023-01-09T01:11:17;95090.44;;;5.30;100.00
47330;BME280;33060;50.178;7.570;2023-01-09T01:13:43;95084.72;;;5.25;100.00
47330;BME280;33060;50.178;7.570;2023-01-09T01:16:12;95087.09;;;5.28;100.00
47330;BME280;33060;50.178;7.570;2023-01-09T01:18:39;95092.44;;;5.27;100.00
47330;BME280;33060;50.178;7.570;2023-01-09T01:21:08;95082.13;;;5.25;100.00
47330;BME280;33060;50.178;7.570;2023-01-09T01:23:35;95086.50;;;5.25;100.00
47330;BME280;33060;50.178;7.570;2023-01-09T01:26:05;95085.31;;;5.29;100.00
47330;BME280;33060;50.178;7.570;2023-01-09T01:28:33;95086.03;;;5.31;100.00
47330;BME280;33060;50.178;7.570;2023-01-09T01:31:00;95092.09;;;5.31;100.00
47330;BME280;33060;50.178;7.570;2023-01-09T01:33:27;95087.06;;;5.39;100.00
47330;BME280;33060;50.178;7.570;2023-01-09T01:36:05;95090.72;;;5.48;100.00
47330;BME280;33060;50.178;7.570;2023-01-09T01:38:33;95087.84;;;5.51;100.00
47330;BME280;33060;50.178;7.570;2023-01-09T01:41:01;95099.13;;;5.52;100.00
47330;BME280;33060;50.178;7.570;2023-01-09T01:43:48;95094.88;;;5.51;100.00
47330;BME280;33060;50.178;7.570;2023-01-09T01:46:17;95097.91;;;5.56;100.00
47330;BME280;33060;50.178;7.570;2023-01-09T01:48:44;95107.19;;;5.60;100.00
47330;BME280;33060;50.178;7.570;2023-01-09T01:51:12;95105.88;;;5.65;100.00
47330;BME280;33060;50.178;7.570;2023-01-09T01:53:46;95103.69;;;5.71;100.00
47330;BME280;33060;50.178;7.570;2023-01-09T01:56:21;95106.16;;;5.72;100.00
47330;BME280;33060;50.178;7.570;2023-01-09T01:58:57;95108.56;;;5.75;100.00
47330;BME280;33060;50.178;7.570;2023-01-09T02:01:26;95110.22;;;5.76;100.00
47330;BME280;33060;50.178;7.570;2023-01-09T02:03:56;95108.56;;;5.75;100.00
47330;BME280;33060;50.178;7.570;2023-01-09T02:06:25;95107.59;;;5.76;100.00
47330;BME280;33060;50.178;7.570;2023-01-09T02:08:52;95112.97;;;5.75;100.00
47330;BME280;33060;50.178;7.570;2023-01-09T02:11:19;95105.41;;;5.81;100.00
47330;BME280;33060;50.178;7.570;2023-01-09T02:13:46;95102.09;;;5.79;100.00
47330;BME280;33060;50.178;7.570;2023-01-09T02:16:37;95103.53;;;5.83;100.00
47330;BME280;33060;50.178;7.570;2023-01-09T02:22:20;95108.84;;;5.93;100.00
47330;BME280;33060;50.178;7.570;2023-01-09T02:28:09;95118.69;;;5.89;100.00
47330;BME280;33060;50.178;7.570;2023-01-09T02:30:48;95126.69;;;5.88;100.00
47330;BME280;33060;50.178;7.570;2023-01-09T02:33:38;95129.56;;;5.85;100.00
47330;BME280;33060;50.178;7.570;2023-01-09T02:36:29;95141.31;;;5.90;100.00
47330;BME280;33060;50.178;7.570;2023-01-09T02:39:15;95139.63;;;5.89;100.00
47330;BME280;33060;50.178;7.570;2023-01-09T02:41:54;95142.50;;;5.86;100.00
47330;BME280;33060;50.178;7.570;2023-01-09T02:44:29;95150.34;;;5.86;100.00
47330;BME280;33060;50.178;7.570;2023-01-09T02:49:57;95150.84;;;5.91;100.00
47330;BME280;33060;50.178;7.570;2023-01-09T02:55:17;95166.75;;;5.88;100.00
47330;BME280;33060;50.178;7.570;2023-01-09T03:00:51;95182.31;;;5.90;100.00
47330;BME280;33060;50.178;7.570;2023-01-09T03:03:36;95185.56;;;5.93;100.00
47330;BME280;33060;50.178;7.570;2023-01-09T03:08:57;95199.72;;;5.91;100.00
47330;BME280;33060;50.178;7.570;2023-01-09T03:11:30;95201.00;;;5.85;100.00
47330;BME280;33060;50.178;7.570;2023-01-09T03:14:08;95195.53;;;5.88;100.00
47330;BME280;33060;50.178;7.570;2023-01-09T03:16:37;95209.59;;;5.76;100.00
47330;BME280;33060;50.178;7.570;2023-01-09T03:19:07;95211.97;;;5.79;100.00
47330;BME280;33060;50.178;7.570;2023-01-09T03:21:36;95204.25;;;5.78;100.00
47330;BME280;33060;50.178;7.570;2023-01-09T03:24:03;95212.22;;;5.76;100.00
47330;BME280;33060;50.178;7.570;2023-01-09T03:26:30;95223.38;;;5.78;99.92
47330;BME280;33060;50.178;7.570;2023-01-09T03:28:58;95218.28;;;5.77;99.08
47330;BME280;33060;50.178;7.570;2023-01-09T03:31:24;95217.69;;;5.73;99.97
47330;BME280;33060;50.178;7.570;2023-01-09T03:33:51;95227.31;;;5.73;99.91
47330;BME280;33060;50.178;7.570;2023-01-09T03:36:19;95219.59;;;5.82;99.28
47330;BME280;33060;50.178;7.570;2023-01-09T03:38:47;95222.56;;;5.78;99.67
47330;BME280;33060;50.178;7.570;2023-01-09T03:41:13;95229.69;;;5.76;99.72
47330;BME280;33060;50.178;7.570;2023-01-09T03:43:40;95229.31;;;5.80;99.06
47330;BME280;33060;50.178;7.570;2023-01-09T03:46:07;95227.91;;;5.76;98.90
47330;BME280;33060;50.178;7.570;2023-01-09T03:48:34;95238.16;;;5.68;99.13
47330;BME280;33060;50.178;7.570;2023-01-09T03:51:00;95229.94;;;5.73;98.37
47330;BME280;33060;50.178;7.570;2023-01-09T03:53:27;95236.97;;;5.61;98.49
47330;BME280;33060;50.178;7.570;2023-01-09T03:55:55;95235.09;;;5.52;99.04
47330;BME280;33060;50.178;7.570;2023-01-09T03:58:23;95242.25;;;5.50;99.46
47330;BME280;33060;50.178;7.570;2023-01-09T04:00:50;95248.78;;;5.44;99.05
47330;BME280;33060;50.178;7.570;2023-01-09T04:03:19;95254.22;;;5.52;98.87
47330;BME280;33060;50.178;7.570;2023-01-09T04:05:47;95259.59;;;5.51;98.67
47330;BME280;33060;50.178;7.570;2023-01-09T04:08:15;95253.28;;;5.53;98.66
47330;BME280;33060;50.178;7.570;2023-01-09T04:10:47;95249.56;;;5.56;98.58
47330;BME280;33060;50.178;7.570;2023-01-09T04:13:14;95250.66;;;5.53;98.27
47330;BME280;33060;50.178;7.570;2023-01-09T04:15:40;95244.84;;;5.50;97.63
47330;BME280;33060;50.178;7.570;2023-01-09T04:18:07;95251.28;;;5.34;97.48
47330;BME280;33060;50.178;7.570;2023-01-09T04:20:34;95254.97;;;5.43;96.48
47330;BME280;33060;50.178;7.570;2023-01-09T04:23:00;95258.88;;;5.49;94.21
47330;BME280;33060;50.178;7.570;2023-01-09T04:25:27;95259.00;;;5.36;94.66
47330;BME280;33060;50.178;7.570;2023-01-09T04:27:54;95257.47;;;5.33;94.62
47330;BME280;33060;50.178;7.570;2023-01-09T04:30:20;95269.47;;;5.25;95.15
47330;BME280;33060;50.178;7.570;2023-01-09T04:32:48;95262.09;;;5.19;96.01
47330;BME280;33060;50.178;7.570;2023-01-09T04:35:15;95259.84;;;5.14;96.88
47330;BME280;33060;50.178;7.570;2023-01-09T04:37:41;95262.59;;;5.13;96.41
47330;BME280;33060;50.178;7.570;2023-01-09T04:40:08;95267.56;;;5.04;96.37
47330;BME280;33060;50.178;7.570;2023-01-09T04:42:36;95266.63;;;5.05;96.31
47330;BME280;33060;50.178;7.570;2023-01-09T04:45:04;95276.94;;;5.07;96.34
47330;BME280;33060;50.178;7.570;2023-01-09T04:47:31;95286.91;;;5.02;96.46
47330;BME280;33060;50.178;7.570;2023-01-09T04:49:59;95298.56;;;4.98;96.29
47330;BME280;33060;50.178;7.570;2023-01-09T04:52:26;95302.69;;;4.89;96.69
47330;BME280;33060;50.178;7.570;2023-01-09T04:54:53;95303.66;;;4.99;95.81
47330;BME280;33060;50.178;7.570;2023-01-09T04:57:19;95312.56;;;4.97;94.91
47330;BME280;33060;50.178;7.570;2023-01-09T04:59:46;95314.09;;;4.88;94.53
47330;BME280;33060;50.178;7.570;2023-01-09T05:02:12;95318.47;;;4.88;93.38
47330;BME280;33060;50.178;7.570;2023-01-09T05:04:39;95315.63;;;4.91;91.89
47330;BME280;33060;50.178;7.570;2023-01-09T05:07:06;95315.97;;;4.86;92.04
47330;BME280;33060;50.178;7.570;2023-01-09T05:09:33;95320.34;;;4.86;90.71
47330;BME280;33060;50.178;7.570;2023-01-09T05:11:59;95322.25;;;4.72;90.74
47330;BME280;33060;50.178;7.570;2023-01-09T05:14:27;95328.84;;;4.65;89.59
47330;BME280;33060;50.178;7.570;2023-01-09T05:16:54;95333.13;;;4.66;89.86
47330;BME280;33060;50.178;7.570;2023-01-09T05:19:20;95342.31;;;4.72;89.49
47330;BME280;33060;50.178;7.570;2023-01-09T05:21:47;95342.31;;;4.83;88.89
47330;BME280;33060;50.178;7.570;2023-01-09T05:24:13;95344.34;;;4.79;89.40
47330;BME280;33060;50.178;7.570;2023-01-09T05:26:40;95338.75;;;4.84;88.68
47330;BME280;33060;50.178;7.570;2023-01-09T05:29:08;95336.03;;;4.86;89.48
47330;BME280;33060;50.178;7.570;2023-01-09T05:31:35;95340.78;;;4.80;89.26
47330;BME280;33060;50.178;7.570;2023-01-09T05:34:01;95353.84;;;4.80;89.47
47330;BME280;33060;50.178;7.570;2023-01-09T05:36:28;95349.00;;;4.87;87.66
47330;BME280;33060;50.178;7.570;2023-01-09T05:38:55;95339.84;;;4.81;88.65
47330;BME280;33060;50.178;7.570;2023-01-09T05:41:23;95352.03;;;4.70;89.65
47330;BME280;33060;50.178;7.570;2023-01-09T05:43:51;95344.88;;;4.61;90.14
47330;BME280;33060;50.178;7.570;2023-01-09T05:46:18;95350.81;;;4.63;89.81
47330;BME280;33060;50.178;7.570;2023-01-09T05:48:45;95337.97;;;4.60;90.76
47330;BME280;33060;50.178;7.570;2023-01-09T05:51:12;95338.31;;;4.55;90.67
47330;BME280;33060;50.178;7.570;2023-01-09T05:53:38;95339.47;;;4.51;91.37
47330;BME280;33060;50.178;7.570;2023-01-09T05:56:05;95344.22;;;4.46;92.45
47330;BME280;33060;50.178;7.570;2023-01-09T05:58:32;95332.88;;;4.34;92.74
47330;BME280;33060;50.178;7.570;2023-01-09T06:00:58;95343.13;;;4.37;94.00
47330;BME280;33060;50.178;7.570;2023-01-09T06:03:25;95338.38;;;4.42;93.92
47330;BME280;33060;50.178;7.570;2023-01-09T06:05:52;95344.78;;;4.38;94.82
47330;BME280;33060;50.178;7.570;2023-01-09T06:08:18;95352.16;;;4.44;94.84
47330;BME280;33060;50.178;7.570;2023-01-09T06:10:45;95361.19;;;4.51;95.97
47330;BME280;33060;50.178;7.570;2023-01-09T06:13:13;95357.31;;;4.57;95.43
47330;BME280;33060;50.178;7.570;2023-01-09T06:15:40;95362.56;;;4.68;95.20
47330;BME280;33060;50.178;7.570;2023-01-09T06:18:06;95366.41;;;4.75;95.51
47330;BME280;33060;50.178;7.570;2023-01-09T06:20:33;95368.81;;;4.78;95.63
47330;BME280;33060;50.178;7.570;2023-01-09T06:23:00;95367.34;;;4.74;96.44
47330;BME280;33060;50.178;7.570;2023-01-09T06:25:26;95383.72;;;4.76;96.82
47330;BME280;33060;50.178;7.570;2023-01-09T06:27:53;95376.72;;;4.77;96.57
47330;BME280;33060;50.178;7.570;2023-01-09T06:30:20;95374.50;;;4.83;96.19
47330;BME280;33060;50.178;7.570;2023-01-09T06:32:47;95379.72;;;4.83;96.80
47330;BME280;33060;50.178;7.570;2023-01-09T06:35:15;95370.09;;;4.84;96.62
47330;BME280;33060;50.178;7.570;2023-01-09T06:37:46;95383.16;;;4.84;96.98
47330;BME280;33060;50.178;7.570;2023-01-09T06:40:13;95372.84;;;4.82;97.42
47330;BME280;33060;50.178;7.570;2023-01-09T06:42:49;95379.41;;;4.88;97.45
47330;BME280;33060;50.178;7.570;2023-01-09T06:45:16;95382.59;;;4.92;96.94
47330;BME280;33060;50.178;7.570;2023-01-09T06:47:43;95387.13;;;4.90;97.45
47330;BME280;33060;50.178;7.570;2023-01-09T06:50:10;95379.41;;;4.88;97.54
47330;BME280;33060;50.178;7.570;2023-01-09T06:52:37;95380.94;;;4.91;96.37
47330;BME280;33060;50.178;7.570;2023-01-09T06:55:05;95384.06;;;4.96;96.68
47330;BME280;33060;50.178;7.570;2023-01-09T06:57:32;95390.56;;;5.01;95.15
47330;BME280;33060;50.178;7.570;2023-01-09T06:59:59;95388.19;;;4.98;95.29
47330;BME280;33060;50.178;7.570;2023-01-09T07:02:25;95394.94;;;4.90;96.62
47330;BME280;33060;50.178;7.570;2023-01-09T07:04:52;95408.00;;;4.90;96.94
47330;BME280;33060;50.178;7.570;2023-01-09T07:07:19;95416.56;;;4.92;96.44
47330;BME280;33060;50.178;7.570;2023-01-09T07:09:47;95410.88;;;4.98;96.42
47330;BME280;33060;50.178;7.570;2023-01-09T07:12:14;95411.00;;;4.96;96.48
47330;BME280;33060;50.178;7.570;2023-01-09T07:14:41;95412.59;;;4.86;97.18
47330;BME280;33060;50.178;7.570;2023-01-09T07:17:10;95410.38;;;4.93;96.74
47330;BME280;33060;50.178;7.570;2023-01-09T07:19:37;95408.34;;;4.85;97.70
47330;BME280;33060;50.178;7.570;2023-01-09T07:22:04;95406.22;;;4.90;97.46
47330;BME280;33060;50.178;7.570;2023-01-09T07:24:30;95408.44;;;4.83;98.39
47330;BME280;33060;50.178;7.570;2023-01-09T07:26:57;95398.25;;;4.80;99.36
47330;BME280;33060;50.178;7.570;2023-01-09T07:29:23;95413.78;;;4.82;99.41
47330;BME280;33060;50.178;7.570;2023-01-09T07:31:50;95410.84;;;4.87;98.89
47330;BME280;33060;50.178;7.570;2023-01-09T07:34:17;95408.72;;;4.92;98.83
47330;BME280;33060;50.178;7.570;2023-01-09T07:36:43;95419.63;;;4.86;99.15
47330;BME280;33060;50.178;7.570;2023-01-09T07:39:12;95418.91;;;4.83;99.18
47330;BME280;33060;50.178;7.570;2023-01-09T07:41:39;95419.25;;;4.79;99.48
47330;BME280;33060;50.178;7.570;2023-01-09T07:44:08;95411.31;;;4.80;99.30
47330;BME280;33060;50.178;7.570;2023-01-09T07:46:36;95427.09;;;4.79;99.10
47330;BME280;33060;50.178;7.570;2023-01-09T07:49:03;95422.19;;;4.74;100.00
47330;BME280;33060;50.178;7.570;2023-01-09T07:51:30;95428.97;;;4.77;99.90
47330;BME280;33060;50.178;7.570;2023-01-09T07:53:56;95431.91;;;4.72;100.00
47330;BME280;33060;50.178;7.570;2023-01-09T07:56:23;95433.59;;;4.73;99.45
47330;BME280;33060;50.178;7.570;2023-01-09T07:58:50;95438.56;;;4.76;99.36
47330;BME280;33060;50.178;7.570;2023-01-09T08:01:17;95440.16;;;4.79;99.02
47330;BME280;33060;50.178;7.570;2023-01-09T08:03:43;95445.84;;;4.84;98.66
47330;BME280;33060;50.178;7.570;2023-01-09T08:06:10;95453.69;;;4.84;98.64
47330;BME280;33060;50.178;7.570;2023-01-09T08:08:36;95449.81;;;4.90;98.71
47330;BME280;33060;50.178;7.570;2023-01-09T08:11:03;95464.56;;;5.02;98.42
47330;BME280;33060;50.178;7.570;2023-01-09T08:13:30;95468.41;;;5.09;99.25
47330;BME280;33060;50.178;7.570;2023-01-09T08:15:56;95464.84;;;5.10;99.29
47330;BME280;33060;50.178;7.570;2023-01-09T08:18:23;95463.69;;;5.14;99.44
47330;BME280;33060;50.178;7.570;2023-01-09T08:20:50;95461.91;;;5.15;99.32
47330;BME280;33060;50.178;7.570;2023-01-09T08:23:16;95461.66;;;5.18;99.29
47330;BME280;33060;50.178;7.570;2023-01-09T08:25:43;95459.19;;;5.27;98.33
47330;BME280;33060;50.178;7.570;2023-01-09T08:28:09;95463.13;;;5.33;98.12
47330;BME280;33060;50.178;7.570;2023-01-09T08:30:37;95463.47;;;5.28;98.10
47330;BME280;33060;50.178;7.570;2023-01-09T08:33:04;95456.38;;;5.30;98.80
47330;BME280;33060;50.178;7.570;2023-01-09T08:35:31;95451.13;;;5.30;99.27
47330;BME280;33060;50.178;7.570;2023-01-09T08:37:58;95454.34;;;5.34;98.39
47330;BME280;33060;50.178;7.570;2023-01-09T08:40:24;95447.84;;;5.51;97.63
47330;BME280;33060;50.178;7.570;2023-01-09T08:42:51;95453.78;;;5.53;97.30
47330;BME280;33060;50.178;7.570;2023-01-09T08:45:36;95453.53;;;5.56;96.44
47330;BME280;33060;50.178;7.570;2023-01-09T08:48:21;95453.91;;;5.51;96.10
47330;BME280;33060;50.178;7.570;2023-01-09T08:50:48;95448.69;;;5.51;96.91
47330;BME280;33060;50.178;7.570;2023-01-09T08:53:14;95452.38;;;5.49;96.77
47330;BME280;33060;50.178;7.570;2023-01-09T08:55:42;95453.91;;;5.51;97.15
47330;BME280;33060;50.178;7.570;2023-01-09T08:58:08;95456.91;;;5.58;97.54
47330;BME280;33060;50.178;7.570;2023-01-09T09:00:35;95474.25;;;5.59;97.23
47330;BME280;33060;50.178;7.570;2023-01-09T09:03:02;95470.56;;;5.73;96.09
47330;BME280;33060;50.178;7.570;2023-01-09T09:05:30;95469.41;;;5.77;95.21
47330;BME280;33060;50.178;7.570;2023-01-09T09:07:57;95469.22;;;6.02;93.67
47330;BME280;33060;50.178;7.570;2023-01-09T09:10:26;95461.00;;;5.95;93.85
47330;BME280;33060;50.178;7.570;2023-01-09T09:12:55;95460.41;;;6.03;93.53
47330;BME280;33060;50.178;7.570;2023-01-09T09:15:23;95461.34;;;6.24;92.65
47330;BME280;33060;50.178;7.570;2023-01-09T09:17:54;95457.56;;;6.17;93.05
47330;BME280;33060;50.178;7.570;2023-01-09T09:20:23;95457.56;;;6.17;92.68
47330;BME280;33060;50.178;7.570;2023-01-09T09:22:51;95456.09;;;6.24;92.03
47330;BME280;33060;50.178;7.570;2023-01-09T09:25:18;95455.66;;;6.19;91.78
47330;BME280;33060;50.178;7.570;2023-01-09T09:27:45;95467.06;;;6.07;91.88
47330;BME280;33060;50.178;7.570;2023-01-09T09:30:13;95474.09;;;5.95;92.97
47330;BME280;33060;50.178;7.570;2023-01-09T09:32:41;95473.50;;;6.03;91.11
47330;BME280;33060;50.178;7.570;2023-01-09T09:35:08;95475.75;;;6.19;90.22
47330;BME280;33060;50.178;7.570;2023-01-09T09:37:35;95482.88;;;6.06;91.15
47330;BME280;33060;50.178;7.570;2023-01-09T09:40:03;95482.06;;;5.94;91.63
47330;BME280;33060;50.178;7.570;2023-01-09T09:42:47;95481.22;;;6.05;90.74
47330;BME280;33060;50.178;7.570;2023-01-09T09:45:55;95473.50;;;6.03;89.52
47330;BME280;33060;50.178;7.570;2023-01-09T09:51:22;95473.59;;;6.24;89.33
47330;BME280;33060;50.178;7.570;2023-01-09T09:56:30;95481.81;;;6.31;89.07
47330;BME280;33060;50.178;7.570;2023-01-09T09:59:17;95481.47;;;6.35;88.72
47330;BME280;33060;50.178;7.570;2023-01-09T10:01:56;95491.59;;;6.29;90.72
47330;BME280;33060;50.178;7.570;2023-01-09T10:04:26;95487.06;;;6.19;89.01
47330;BME280;33060;50.178;7.570;2023-01-09T10:06:57;95498.00;;;6.24;90.22
47330;BME280;33060;50.178;7.570;2023-01-09T10:09:41;95500.84;;;6.33;89.24
47330;BME280;33060;50.178;7.570;2023-01-09T10:12:14;95502.88;;;6.40;88.94
47330;BME280;33060;50.178;7.570;2023-01-09T10:14:44;95500.13;;;6.64;88.08
47330;BME280;33060;50.178;7.570;2023-01-09T10:30:58;95491.00;;;6.36;87.87
47330;BME280;33060;50.178;7.570;2023-01-09T10:37:00;95490.41;;;6.44;87.85
47330;BME280;33060;50.178;7.570;2023-01-09T10:39:38;95490.63;;;6.41;87.88
47330;BME280;33060;50.178;7.570;2023-01-09T10:42:14;95488.94;;;6.51;86.88
47330;BME280;33060;50.178;7.570;2023-01-09T10:47:29;95483.09;;;6.59;85.82
47330;BME280;33060;50.178;7.570;2023-01-09T10:49:57;95496.66;;;6.64;86.03
47330;BME280;33060;50.178;7.570;2023-01-09T10:52:32;95497.97;;;6.58;85.93
47330;BME280;33060;50.178;7.570;2023-01-09T10:55:16;95495.13;;;6.61;84.82
47330;BME280;33060;50.178;7.570;2023-01-09T10:57:48;95496.19;;;6.59;85.18
47330;BME280;33060;50.178;7.570;2023-01-09T11:00:18;95499.31;;;6.53;85.33
47330;BME280;33060;50.178;7.570;2023-01-09T11:02:49;95502.16;;;6.61;85.62
47330;BME280;33060;50.178;7.570;2023-01-09T11:05:22;95486.53;;;6.59;85.22
47330;BME280;33060;50.178;7.570;2023-01-09T11:08:18;95493.94;;;6.54;85.71
47330;BME280;33060;50.178;7.570;2023-01-09T11:13:22;95496.06;;;6.60;86.55
47330;BME280;33060;50.178;7.570;2023-01-09T11:18:59;95504.28;;;6.78;86.44
47330;BME280;33060;50.178;7.570;2023-01-09T11:23:57;95517.50;;;6.65;87.07
47330;BME280;33060;50.178;7.570;2023-01-09T11:26:43;95512.84;;;6.80;85.16
47330;BME280;33060;50.178;7.570;2023-01-09T11:29:15;95514.28;;;6.73;86.13
47330;BME280;33060;50.178;7.570;2023-01-09T11:31:50;95517.66;;;6.53;86.62
47330;BME280;33060;50.178;7.570;2023-01-09T11:34:20;95526.81;;;6.47;86.99
47330;BME280;33060;50.178;7.570;2023-01-09T11:36:48;95529.19;;;6.39;87.91
47330;BME280;33060;50.178;7.570;2023-01-09T11:39:31;95527.06;;;6.44;88.25
47330;BME280;33060;50.178;7.570;2023-01-09T11:42:02;95530.50;;;6.56;86.55
47330;BME280;33060;50.178;7.570;2023-01-09T11:44:31;95527.97;;;6.65;86.38
47330;BME280;33060;50.178;7.570;2023-01-09T11:46:58;95522.50;;;6.57;86.82
47330;BME280;33060;50.178;7.570;2023-01-09T11:49:28;95536.06;;;6.51;86.07
47330;BME280;33060;50.178;7.570;2023-01-09T11:55:01;95529.88;;;6.74;84.78
47330;BME280;33060;50.178;7.570;2023-01-09T11:57:31;95533.78;;;6.69;83.92
47330;BME280;33060;50.178;7.570;2023-01-09T12:00:00;95536.69;;;6.55;83.68
47330;BME280;33060;50.178;7.570;2023-01-09T12:02:58;95536.19;;;6.49;85.08
47330;BME280;33060;50.178;7.570;2023-01-09T12:11:01;95543.34;;;6.47;84.72
47330;BME280;33060;50.178;7.570;2023-01-09T12:22:12;95543.47;;;6.46;85.93
47330;BME280;33060;50.178;7.570;2023-01-09T12:25:40;95551.06;;;6.60;85.63
47330;BME280;33060;50.178;7.570;2023-01-09T12:28:24;95538.22;;;6.57;85.29
47330;BME280;33060;50.178;7.570;2023-01-09T12:41:58;95535.84;;;6.65;84.55
47330;BME280;33060;50.178;7.570;2023-01-09T12:47:17;95525.56;;;6.85;82.85
47330;BME280;33060;50.178;7.570;2023-01-09T12:55:24;95530.09;;;6.83;83.59
47330;BME280;33060;50.178;7.570;2023-01-09T12:57:58;95522.38;;;6.59;84.44
47330;BME280;33060;50.178;7.570;2023-01-09T13:00:33;95534.19;;;6.42;85.00
47330;BME280;33060;50.178;7.570;2023-01-09T13:03:30;95544.91;;;6.39;85.23
47330;BME280;33060;50.178;7.570;2023-01-09T13:05:59;95540.25;;;6.42;84.90
47330;BME280;33060;50.178;7.570;2023-01-09T13:08:33;95541.66;;;6.58;84.24
47330;BME280;33060;50.178;7.570;2023-01-09T13:11:25;95540.25;;;6.65;84.04
47330;BME280;33060;50.178;7.570;2023-01-09T13:13:57;95542.50;;;6.80;83.99
47330;BME280;33060;50.178;7.570;2023-01-09T13:16:31;95544.38;;;6.90;83.72
47330;BME280;33060;50.178;7.570;2023-01-09T13:19:11;95545.78;;;6.94;83.42
47330;BME280;33060;50.178;7.570;2023-01-09T13:21:41;95551.63;;;6.86;84.09
47330;BME280;33060;50.178;7.570;2023-01-09T13:24:26;95549.41;;;6.82;84.21
47330;BME280;33060;50.178;7.570;2023-01-09T13:27:02;95546.91;;;6.69;85.06
47330;BME280;33060;50.178;7.570;2023-01-09T13:29:36;95557.16;;;6.61;86.40
47330;BME280;33060;50.178;7.570;2023-01-09T13:35:02;95560.69;;;6.93;84.54
47330;BME280;33060;50.178;7.570;2023-01-09T13:37:35;95569.28;;;6.73;85.63
47330;BME280;33060;50.178;7.570;2023-01-09T13:40:04;95572.03;;;6.49;87.07
47330;BME280;33060;50.178;7.570;2023-01-09T13:42:32;95566.81;;;6.38;87.60
47330;BME280;33060;50.178;7.570;2023-01-09T13:45:18;95568.84;;;6.34;88.44
47330;BME280;33060;50.178;7.570;2023-01-09T13:47:46;95575.94;;;6.32;88.18
47330;BME280;33060;50.178;7.570;2023-01-09T13:50:25;95579.91;;;6.38;88.07
47330;BME280;33060;50.178;7.570;2023-01-09T13:52:52;95579.66;;;6.41;88.15
47330;BME280;33060;50.178;7.570;2023-01-09T13:55:21;95572.53;;;6.43;88.36
47330;BME280;33060;50.178;7.570;2023-01-09T14:08:31;95596.81;;;6.56;86.41
47330;BME280;33060;50.178;7.570;2023-01-09T14:11:01;95598.47;;;6.46;86.02
47330;BME280;33060;50.178;7.570;2023-01-09T14:13:31;95607.16;;;6.46;86.74
47330;BME280;33060;50.178;7.570;2023-01-09T14:16:14;95607.28;;;6.45;86.25
47330;BME280;33060;50.178;7.570;2023-01-09T14:21:23;95602.38;;;6.40;86.67
47330;BME280;33060;50.178;7.570;2023-01-09T14:24:01;95614.31;;;6.44;86.70
47330;BME280;33060;50.178;7.570;2023-01-09T14:26:48;95618.47;;;6.47;87.48
47330;BME280;33060;50.178;7.570;2023-01-09T14:34:56;95634.75;;;6.39;87.32
47330;BME280;33060;50.178;7.570;2023-01-09T14:37:26;95642.50;;;6.41;87.15
47330;BME280;33060;50.178;7.570;2023-01-09T14:39:54;95645.00;;;6.42;86.57
47330;BME280;33060;50.178;7.570;2023-01-09T14:42:26;95643.44;;;6.40;86.92
47330;BME280;33060;50.178;7.570;2023-01-09T14:45:15;95654.50;;;6.32;86.62
47330;BME280;33060;50.178;7.570;2023-01-09T14:47:53;95665.34;;;6.28;86.80
47330;BME280;33060;50.178;7.570;2023-01-09T14:50:29;95663.09;;;6.34;85.73
47330;BME280;33060;50.178;7.570;2023-01-09T14:53:17;95676.16;;;6.23;85.43
47330;BME280;33060;50.178;7.570;2023-01-09T14:55:52;95673.66;;;6.21;85.41
47330;BME280;33060;50.178;7.570;2023-01-09T14:58:28;95677.75;;;6.02;85.93
47330;BME280;33060;50.178;7.570;2023-01-09T15:01:16;95685.25;;;6.06;85.40
47330;BME280;33060;50.178;7.570;2023-01-09T15:03:56;95693.31;;;5.92;86.62
47330;BME280;33060;50.178;7.570;2023-01-09T15:11:29;95720.44;;;5.78;89.67
47330;BME280;33060;50.178;7.570;2023-01-09T15:13:58;95721.22;;;5.67;91.04
47330;BME280;33060;50.178;7.570;2023-01-09T15:16:30;95725.75;;;5.53;91.00
47330;BME280;33060;50.178;7.570;2023-01-09T15:19:01;95731.94;;;5.52;91.16
47330;BME280;33060;50.178;7.570;2023-01-09T15:21:30;95734.31;;;5.55;91.68
47330;BME280;33060;50.178;7.570;2023-01-09T15:26:51;95739.16;;;5.48;91.97
47330;BME280;33060;50.178;7.570;2023-01-09T15:29:18;95738.88;;;5.40;92.47